Epic St Croix — 9HA4038 — position and weather

sailwx.info

Track history (hours):
 
Tides and Currents Weather Stations Pressure Air Temp Water Temp Dewpoint Dewpoint Depression Visibility Wind Speed Wind Dir Waves Ship Positions

Epic St Croix

Last reported at 2018-Apr-19 09:27 UTC. Time now 2018-Apr-20 05:12 UTC.
Position N 33°39' W 010°05'.

Length 100 m; draft 6 m.

Type: Tanker. MMSI: 256925000.

Date/timePositionNaut miles runAvg speedWind from/ knotsBaromVisibWave heightAir tempDewpointWater temp
2018-Apr-19 09:27N 33°39' W 010°05'1312.6
2018-Apr-19 08:27N 33°52' W 010°06'9412.6
2018-Apr-19 00:57N 35°26' W 010°07'14912.5
2018-Apr-18 13:02N 37°55' W 010°10'112.2
2018-Apr-18 12:59N 37°55' W 010°10'612.3
2018-Apr-18 12:30N 38°01' W 010°10'612.3
2018-Apr-18 12:00N 38°07' W 010°10'612.6
2018-Apr-18 11:30N 38°14' W 010°10'612.8
2018-Apr-18 11:00N 38°20' W 010°11'612.3
2018-Apr-18 10:30N 38°26' W 010°11'612.4
2018-Apr-18 10:00N 38°32' W 010°11'612.6
2018-Apr-18 09:30N 38°39' W 010°11'612.2
2018-Apr-18 09:00N 38°45' W 010°11'612.6
2018-Apr-18 08:30N 38°51' W 010°11'612.7
2018-Apr-18 08:00N 38°57' W 010°11'713.0
2018-Apr-18 07:30N 39°04' W 010°11'612.8
2018-Apr-18 07:00N 39°10' W 010°11'612.1
2018-Apr-18 06:30N 39°16' W 010°11'612.3
2018-Apr-18 06:00N 39°22' W 010°11'2912.2
2018-Apr-18 03:37N 39°52' W 010°11'211.8
2018-Apr-18 03:28N 39°53' W 010°11'611.8
2018-Apr-18 03:00N 39°59' W 010°11'290 7.2
2018-Apr-16 11:02N 43°47' W 006°11'012.4
2018-Apr-16 11:00N 43°47' W 006°11'611.8
2018-Apr-16 10:29N 43°46' W 006°02'4 9.0
2018-Apr-16 10:00N 43°46' W 005°56'510.0
2018-Apr-16 09:27N 43°45' W 005°49'511.9
2018-Apr-16 09:01N 43°45' W 005°41'611.9
2018-Apr-16 08:30N 43°44' W 005°33'611.6
2018-Apr-16 07:59N 43°44' W 005°25'611.6
2018-Apr-16 07:30N 43°43' W 005°17'611.7
2018-Apr-16 07:01N 43°43' W 005°09'611.6
2018-Apr-16 06:30N 43°43' W 005°01'8011.4
2018-Apr-15 23:28N 43°28' W 003°12'5 9.9
2018-Apr-15 22:59N 43°25' W 003°07'3 6.4
2018-Apr-15 22:30N 43°22' W 003°06'  
2018-Apr-13 16:18N 43°22' W 003°06'1 2.7
2018-Apr-13 16:00N 43°22' W 003°05'4 7.9
2018-Apr-13 15:30N 43°26' W 003°08'4 8.6
2018-Apr-13 15:01N 43°29' W 003°12'9312.3
2018-Apr-13 07:24N 43°43' W 005°19'512.3
2018-Apr-13 07:00N 43°44' W 005°26'712.3
2018-Apr-13 06:26N 43°45' W 005°36'612.5
2018-Apr-13 05:56N 43°45' W 005°44'612.2
2018-Apr-13 05:26N 43°46' W 005°53'612.4
2018-Apr-13 04:55N 43°46' W 006°02'512.6
2018-Apr-13 04:30N 43°47' W 006°09'712.6
2018-Apr-13 03:54N 43°47' W 006°19'  
Track history (hours):
 
Tides and Currents Weather Stations Pressure Air Temp Water Temp Dewpoint Dewpoint Depression Visibility Wind Speed Wind Dir Waves Ship Positions

Epic St Croix

Last reported at 2018-Apr-19 09:27 UTC. Time now 2018-Apr-20 05:12 UTC.
Position N 33°39' W 010°05'.

Length 100 m; draft 6 m.

Type: Tanker. MMSI: 256925000.

Date/timePositionNaut miles runAvg speedWind from/ knotsBaromVisibWave heightAir tempDewpointWater temp
2018-Apr-19 09:27N 33°39' W 010°05'1312.6
2018-Apr-19 08:27N 33°52' W 010°06'9412.6
2018-Apr-19 00:57N 35°26' W 010°07'14912.5
2018-Apr-18 13:02N 37°55' W 010°10'112.2
2018-Apr-18 12:59N 37°55' W 010°10'612.3
2018-Apr-18 12:30N 38°01' W 010°10'612.3
2018-Apr-18 12:00N 38°07' W 010°10'612.6
2018-Apr-18 11:30N 38°14' W 010°10'612.8
2018-Apr-18 11:00N 38°20' W 010°11'612.3
2018-Apr-18 10:30N 38°26' W 010°11'612.4
2018-Apr-18 10:00N 38°32' W 010°11'612.6
2018-Apr-18 09:30N 38°39' W 010°11'612.2
2018-Apr-18 09:00N 38°45' W 010°11'612.6
2018-Apr-18 08:30N 38°51' W 010°11'612.7
2018-Apr-18 08:00N 38°57' W 010°11'713.0
2018-Apr-18 07:30N 39°04' W 010°11'612.8
2018-Apr-18 07:00N 39°10' W 010°11'612.1
2018-Apr-18 06:30N 39°16' W 010°11'612.3
2018-Apr-18 06:00N 39°22' W 010°11'2912.2
2018-Apr-18 03:37N 39°52' W 010°11'211.8
2018-Apr-18 03:28N 39°53' W 010°11'611.8
2018-Apr-18 03:00N 39°59' W 010°11'290 7.2
2018-Apr-16 11:02N 43°47' W 006°11'012.4
2018-Apr-16 11:00N 43°47' W 006°11'611.8
2018-Apr-16 10:29N 43°46' W 006°02'4 9.0
2018-Apr-16 10:00N 43°46' W 005°56'510.0
2018-Apr-16 09:27N 43°45' W 005°49'511.9
2018-Apr-16 09:01N 43°45' W 005°41'611.9
2018-Apr-16 08:30N 43°44' W 005°33'611.6
2018-Apr-16 07:59N 43°44' W 005°25'611.6
2018-Apr-16 07:30N 43°43' W 005°17'611.7
2018-Apr-16 07:01N 43°43' W 005°09'611.6
2018-Apr-16 06:30N 43°43' W 005°01'8011.4
2018-Apr-15 23:28N 43°28' W 003°12'5 9.9
2018-Apr-15 22:59N 43°25' W 003°07'3 6.4
2018-Apr-15 22:30N 43°22' W 003°06'  
2018-Apr-13 16:18N 43°22' W 003°06'1 2.7
2018-Apr-13 16:00N 43°22' W 003°05'4 7.9
2018-Apr-13 15:30N 43°26' W 003°08'4 8.6
2018-Apr-13 15:01N 43°29' W 003°12'9312.3
2018-Apr-13 07:24N 43°43' W 005°19'512.3
2018-Apr-13 07:00N 43°44' W 005°26'712.3
2018-Apr-13 06:26N 43°45' W 005°36'612.5
2018-Apr-13 05:56N 43°45' W 005°44'612.2
2018-Apr-13 05:26N 43°46' W 005°53'612.4
2018-Apr-13 04:55N 43°46' W 006°02'512.6
2018-Apr-13 04:30N 43°47' W 006°09'712.6
2018-Apr-13 03:54N 43°47' W 006°19'  

Dump ship's entire track history